createdAt,value
2022-12-20T00:02:53.862Z,-4.68
2022-12-20T00:07:56.159Z,-4.56
2022-12-20T00:12:58.369Z,-4.48
2022-12-20T00:18:01.222Z,-4.37
2022-12-20T00:23:03.998Z,-4.53
2022-12-20T00:28:06.259Z,-4.48
2022-12-20T00:33:08.464Z,-4.42
2022-12-20T00:38:10.770Z,-4.64
2022-12-20T00:43:13.294Z,-4.43
2022-12-20T00:48:15.525Z,-4.77
2022-12-20T00:53:22.641Z,-5.23
2022-12-20T00:58:29.082Z,-4.46
2022-12-20T01:03:32.566Z,-4.96
2022-12-20T01:08:34.958Z,-4.74
2022-12-20T01:13:39.271Z,-4.68
2022-12-20T01:18:41.934Z,-4.98
2022-12-20T01:23:44.553Z,-4.90
2022-12-20T01:28:48.229Z,-4.99
2022-12-20T01:33:51.712Z,-5.22
2022-12-20T01:39:16.050Z,-5.22
2022-12-20T01:44:18.184Z,-4.67
2022-12-20T01:49:33.248Z,-5.05
2022-12-20T01:54:59.627Z,-4.99
2022-12-20T02:00:02.310Z,-4.89
2022-12-20T02:05:18.223Z,-5.51
2022-12-20T02:10:24.513Z,-4.98
2022-12-20T02:15:36.312Z,-4.75
2022-12-20T02:21:06.609Z,-4.78
2022-12-20T02:26:27.405Z,-4.80
2022-12-20T02:31:50.602Z,-5.69
2022-12-20T02:36:53.271Z,-5.16
2022-12-20T02:41:58.926Z,-5.20
2022-12-20T02:47:03.484Z,-5.05
2022-12-20T02:52:06.275Z,-5.42
2022-12-20T02:57:22.918Z,-5.18
2022-12-20T03:02:25.980Z,-5.61
2022-12-20T03:07:29.587Z,-5.51
2022-12-20T03:12:32.525Z,-5.72
2022-12-20T03:17:35.247Z,-6.25
2022-12-20T03:22:38.790Z,-5.71
2022-12-20T03:27:41.285Z,-6.46
2022-12-20T03:32:44.898Z,-6.08
2022-12-20T03:37:47.736Z,-5.84
2022-12-20T03:42:50.085Z,-6.31
2022-12-20T03:47:52.305Z,-6.17
2022-12-20T03:52:55.671Z,-5.98
2022-12-20T03:58:00.477Z,-6.56
2022-12-20T04:03:07.208Z,-6.46
2022-12-20T04:08:10.000Z,-6.47
2022-12-20T04:13:12.366Z,-6.63
2022-12-20T04:18:14.713Z,-6.63
2022-12-20T04:23:17.736Z,-6.99
2022-12-20T04:28:20.795Z,-6.91
2022-12-20T04:33:25.348Z,-6.57
2022-12-20T04:38:27.792Z,-6.45
2022-12-20T04:43:30.457Z,-6.39
2022-12-20T04:48:56.383Z,-6.80
2022-12-20T04:53:58.039Z,-7.02
2022-12-20T04:59:08.999Z,-6.76
2022-12-20T05:04:11.917Z,-6.71
2022-12-20T05:09:14.539Z,-6.77
2022-12-20T05:14:17.027Z,-7.03
2022-12-20T05:19:19.435Z,-7.54
2022-12-20T05:24:40.592Z,-6.96
2022-12-20T05:30:01.006Z,-7.05
2022-12-20T05:35:06.133Z,-7.26
2022-12-20T05:40:10.048Z,-6.68
2022-12-20T05:45:13.525Z,-6.91
2022-12-20T05:50:24.902Z,-7.07
2022-12-20T05:55:48.908Z,-6.91
2022-12-20T06:00:51.671Z,-7.01
2022-12-20T06:05:54.885Z,-7.02
2022-12-20T06:11:04.967Z,-7.10
2022-12-20T06:16:13.851Z,-7.02
2022-12-20T06:21:17.880Z,-7.31
2022-12-20T06:26:26.278Z,-7.16
2022-12-20T06:31:29.803Z,-6.94
2022-12-20T06:36:32.255Z,-7.29
2022-12-20T06:41:36.054Z,-7.14
2022-12-20T06:46:38.465Z,-7.00
2022-12-20T06:51:41.232Z,-7.55
2022-12-20T06:56:44.030Z,-7.51
2022-12-20T07:01:48.134Z,-7.55
2022-12-20T07:06:50.599Z,-7.80
2022-12-20T07:11:52.979Z,-7.80
2022-12-20T07:16:55.454Z,-7.88
2022-12-20T07:21:57.813Z,-7.59
2022-12-20T07:27:00.323Z,-7.74
2022-12-20T07:32:03.608Z,-7.19
2022-12-20T07:37:05.954Z,-6.34
2022-12-20T07:42:09.694Z,-5.49
2022-12-20T07:47:17.669Z,-4.86
2022-12-20T07:52:21.861Z,-4.13
2022-12-20T07:57:28.266Z,-4.50
2022-12-20T08:02:39.383Z,-5.42
2022-12-20T08:07:43.792Z,-5.96
2022-12-20T08:12:48.618Z,-6.41
2022-12-20T08:17:51.399Z,-6.55
2022-12-20T08:22:53.720Z,-6.55
2022-12-20T08:27:56.359Z,-7.04
2022-12-20T08:32:58.608Z,-7.07
2022-12-20T08:38:00.910Z,-7.18
2022-12-20T08:43:09.750Z,-7.12
2022-12-20T08:48:12.346Z,-6.65
2022-12-20T08:53:14.588Z,-7.20
2022-12-20T08:58:17.015Z,-7.16
2022-12-20T09:03:19.581Z,-6.81
2022-12-20T09:08:21.884Z,-7.12
2022-12-20T09:13:24.124Z,-7.11
2022-12-20T09:18:26.354Z,-7.41
2022-12-20T09:23:29.434Z,-6.73
2022-12-20T09:28:32.771Z,-6.72
2022-12-20T09:33:35.618Z,-6.98
2022-12-20T09:38:37.874Z,-6.84
2022-12-20T09:43:41.994Z,-7.44
2022-12-20T09:48:44.942Z,-6.87
2022-12-20T09:53:56.180Z,-6.77
2022-12-20T09:59:07.266Z,-7.03
2022-12-20T10:04:22.315Z,-7.01
2022-12-20T10:09:33.901Z,-6.60
2022-12-20T10:14:41.987Z,-6.57
2022-12-20T10:20:04.811Z,-6.53
2022-12-20T10:25:25.353Z,-6.87
2022-12-20T10:30:33.201Z,-6.79
2022-12-20T10:35:41.164Z,-6.72
2022-12-20T10:41:21.196Z,-6.46
2022-12-20T10:46:18.154Z,-6.64
2022-12-20T10:51:22.860Z,-6.85
2022-12-20T10:56:30.394Z,-6.64
2022-12-20T11:01:36.000Z,-6.69
2022-12-20T11:06:38.363Z,-6.44
2022-12-20T11:12:00.179Z,-6.54
2022-12-20T11:17:25.821Z,-6.54
2022-12-20T11:22:56.623Z,-6.32
2022-12-20T11:28:12.349Z,-6.36
2022-12-20T11:33:36.463Z,-6.39
2022-12-20T11:38:42.673Z,-6.46
2022-12-20T11:44:31.186Z,-6.60
2022-12-20T11:50:04.834Z,-6.80
2022-12-20T11:55:12.858Z,-6.65
2022-12-20T12:00:16.358Z,-7.23
2022-12-20T12:05:25.733Z,-7.00
2022-12-20T12:10:32.845Z,-6.70
2022-12-20T12:15:39.089Z,-6.84
2022-12-20T12:20:48.720Z,-6.81
2022-12-20T12:25:51.320Z,-7.04
2022-12-20T12:31:15.769Z,-7.12
2022-12-20T12:36:36.140Z,-6.94
2022-12-20T12:42:09.468Z,-6.91
2022-12-20T12:47:20.321Z,-6.95
2022-12-20T12:52:50.838Z,-7.38
2022-12-20T12:57:59.589Z,-7.09
2022-12-20T13:03:06.374Z,-7.01
2022-12-20T13:08:18.617Z,-7.37
2022-12-20T13:13:23.145Z,-7.05
2022-12-20T13:18:25.950Z,-7.79
2022-12-20T13:23:28.179Z,-7.70
2022-12-20T13:28:30.332Z,-7.15
2022-12-20T13:33:49.237Z,-7.43
2022-12-20T13:38:53.729Z,-8.01
2022-12-20T13:43:57.480Z,-7.21
2022-12-20T13:49:11.006Z,-7.30
2022-12-20T13:54:26.861Z,-7.50
2022-12-20T13:59:33.517Z,-7.58
2022-12-20T14:04:44.433Z,-7.63
2022-12-20T14:09:56.477Z,-7.97
2022-12-20T14:14:58.954Z,-8.15
2022-12-20T14:20:17.813Z,-7.27
2022-12-20T14:25:32.064Z,-7.63
2022-12-20T14:30:43.229Z,-7.64
2022-12-20T14:35:49.324Z,-8.11
2022-12-20T14:40:54.203Z,-8.35
2022-12-20T14:46:19.837Z,-7.49
2022-12-20T14:51:22.417Z,-8.10
2022-12-20T14:56:31.500Z,-7.74
2022-12-20T15:01:38.534Z,-7.97
2022-12-20T15:06:46.172Z,-8.15
2022-12-20T15:11:49.243Z,-8.16
2022-12-20T15:16:52.385Z,-8.73
2022-12-20T15:21:55.113Z,-8.02
2022-12-20T15:26:57.563Z,-8.12
2022-12-20T15:32:13.733Z,-8.38
2022-12-20T15:37:18.736Z,-8.36
2022-12-20T15:42:23.192Z,-8.51
2022-12-20T15:47:25.385Z,-8.62
2022-12-20T15:52:27.850Z,-9.05
2022-12-20T15:57:31.092Z,-9.12
2022-12-20T16:02:33.654Z,-9.59
2022-12-20T16:07:36.062Z,-9.18
2022-12-20T16:12:38.865Z,-9.16
2022-12-20T16:17:41.282Z,-9.40
2022-12-20T16:22:45.116Z,-9.58
2022-12-20T16:27:49.025Z,-9.41
2022-12-20T16:32:51.501Z,-9.25
2022-12-20T16:37:55.967Z,-9.27
2022-12-20T16:42:59.788Z,-9.40
2022-12-20T16:48:02.114Z,-9.64
2022-12-20T16:53:04.466Z,-9.57
2022-12-20T16:58:06.790Z,-9.69
2022-12-20T17:03:09.135Z,-9.87
2022-12-20T17:13:27.693Z,-9.82
2022-12-20T17:18:29.959Z,-10.45
2022-12-20T17:23:44.073Z,-9.60
2022-12-20T17:28:46.914Z,-9.78
2022-12-20T17:33:49.149Z,-9.56
2022-12-20T17:38:51.539Z,-10.68
2022-12-20T17:43:59.603Z,-10.08
2022-12-20T17:49:01.875Z,-9.81
2022-12-20T17:54:04.288Z,-10.47
2022-12-20T17:59:06.555Z,-10.44
2022-12-20T18:04:11.260Z,-10.51
2022-12-20T18:09:18.899Z,-10.13
2022-12-20T18:14:21.196Z,-10.04
2022-12-20T18:19:23.487Z,-10.13
2022-12-20T18:24:26.099Z,-9.82
2022-12-20T18:29:28.963Z,-9.86
2022-12-20T18:34:31.529Z,-10.17
2022-12-20T18:39:34.056Z,-10.28
2022-12-20T18:44:36.486Z,-10.41
2022-12-20T18:49:38.904Z,-10.23
2022-12-20T18:54:41.321Z,-10.39
2022-12-20T18:59:43.790Z,-10.43
2022-12-20T19:04:49.020Z,-10.78
2022-12-20T19:09:51.301Z,-11.36
2022-12-20T19:15:04.002Z,-10.29
2022-12-20T19:20:07.257Z,-11.14
2022-12-20T19:25:09.805Z,-11.61
2022-12-20T19:30:12.294Z,-10.78
2022-12-20T19:35:52.859Z,-11.70
2022-12-20T19:40:37.228Z,-10.78
2022-12-20T19:45:39.659Z,-11.17
2022-12-20T19:50:41.900Z,-10.64
2022-12-20T19:55:53.023Z,-10.35
2022-12-20T20:00:55.965Z,-10.44
2022-12-20T20:05:58.664Z,-10.43
2022-12-20T20:11:08.789Z,-10.63
2022-12-20T20:16:15.483Z,-10.67
2022-12-20T20:21:23.304Z,-10.51
2022-12-20T20:26:27.417Z,-10.33
2022-12-20T20:31:29.802Z,-11.03
2022-12-20T20:36:32.135Z,-10.31
2022-12-20T20:41:34.523Z,-10.17
2022-12-20T20:46:36.828Z,-10.03
2022-12-20T20:51:39.206Z,-10.28
2022-12-20T20:56:41.645Z,-10.60
2022-12-20T21:01:43.936Z,-10.33
2022-12-20T21:06:46.802Z,-10.47
2022-12-20T21:11:49.223Z,-10.07
2022-12-20T21:16:51.499Z,-10.12
2022-12-20T21:21:53.817Z,-9.80
2022-12-20T21:26:57.218Z,-9.82
2022-12-20T21:31:59.548Z,-9.70
2022-12-20T21:37:01.871Z,-10.16
2022-12-20T21:42:04.254Z,-10.64
2022-12-20T21:47:06.630Z,-10.47
2022-12-20T21:52:08.840Z,-9.57
2022-12-20T21:57:11.622Z,-9.44
2022-12-20T22:02:14.731Z,-10.73
2022-12-20T22:07:17.116Z,-10.37
2022-12-20T22:12:19.520Z,-9.52
2022-12-20T22:17:21.714Z,-9.38
2022-12-20T22:22:25.630Z,-9.52
2022-12-20T22:27:27.928Z,-9.42
2022-12-20T22:32:31.932Z,-9.40
2022-12-20T22:37:34.171Z,-9.22
2022-12-20T22:42:40.155Z,-9.19
2022-12-20T22:47:42.504Z,-9.33
2022-12-20T22:52:44.792Z,-9.09
2022-12-20T22:57:48.122Z,-8.92
2022-12-20T23:02:50.711Z,-9.37
2022-12-20T23:07:52.997Z,-9.23
2022-12-20T23:13:21.143Z,-9.61
2022-12-20T23:18:23.437Z,-9.07
2022-12-20T23:23:25.728Z,-9.25
2022-12-20T23:28:27.939Z,-9.47
2022-12-20T23:33:30.255Z,-9.27
2022-12-20T23:38:33.731Z,-9.21
2022-12-20T23:43:36.676Z,-9.24
2022-12-20T23:48:39.245Z,-9.01
2022-12-20T23:53:41.512Z,-9.10
2022-12-20T23:58:45.053Z,-9.29
